sensor_id;sensor_type;location;lat;lon;timestamp;temperature;humidity
7214;DHT22;3648;50.614;13.830;2023-06-14T00:01:54;12.80;99.90
7214;DHT22;3648;50.614;13.830;2023-06-14T00:04:21;12.80;99.90
7214;DHT22;3648;50.614;13.830;2023-06-14T00:06:52;12.70;99.90
7214;DHT22;3648;50.614;13.830;2023-06-14T00:09:19;12.70;99.90
7214;DHT22;3648;50.614;13.830;2023-06-14T00:11:46;12.70;99.90
7214;DHT22;3648;50.614;13.830;2023-06-14T00:14:13;12.70;99.90
7214;DHT22;3648;50.614;13.830;2023-06-14T00:16:40;12.70;99.90
7214;DHT22;3648;50.614;13.830;2023-06-14T00:19:07;12.60;99.90
7214;DHT22;3648;50.614;13.830;2023-06-14T00:21:35;12.60;99.90
7214;DHT22;3648;50.614;13.830;2023-06-14T00:24:05;12.60;99.90
7214;DHT22;3648;50.614;13.830;2023-06-14T00:26:32;12.60;99.90
7214;DHT22;3648;50.614;13.830;2023-06-14T00:28:59;12.60;99.90
7214;DHT22;3648;50.614;13.830;2023-06-14T00:31:26;12.60;99.90
7214;DHT22;3648;50.614;13.830;2023-06-14T00:33:53;12.60;99.90
7214;DHT22;3648;50.614;13.830;2023-06-14T00:36:20;12.60;99.90
7214;DHT22;3648;50.614;13.830;2023-06-14T00:38:47;12.60;99.90
7214;DHT22;3648;50.614;13.830;2023-06-14T00:41:15;12.60;99.90
7214;DHT22;3648;50.614;13.830;2023-06-14T00:43:42;12.50;99.90
7214;DHT22;3648;50.614;13.830;2023-06-14T00:46:09;12.50;99.90
7214;DHT22;3648;50.614;13.830;2023-06-14T00:48:37;12.50;99.90
7214;DHT22;3648;50.614;13.830;2023-06-14T00:51:04;12.40;99.90
7214;DHT22;3648;50.614;13.830;2023-06-14T00:53:31;12.30;99.90
7214;DHT22;3648;50.614;13.830;2023-06-14T00:56:01;12.30;99.90
7214;DHT22;3648;50.614;13.830;2023-06-14T00:58:30;12.20;99.90
7214;DHT22;3648;50.614;13.830;2023-06-14T01:00:57;12.20;99.90
7214;DHT22;3648;50.614;13.830;2023-06-14T01:03:24;12.20;99.90
7214;DHT22;3648;50.614;13.830;2023-06-14T01:05:59;12.10;99.90
7214;DHT22;3648;50.614;13.830;2023-06-14T01:08:38;12.10;99.90
7214;DHT22;3648;50.614;13.830;2023-06-14T01:11:14;12.10;99.90
7214;DHT22;3648;50.614;13.830;2023-06-14T01:13:46;12.10;99.90
7214;DHT22;3648;50.614;13.830;2023-06-14T01:16:14;12.10;99.90
7214;DHT22;3648;50.614;13.830;2023-06-14T01:18:41;12.00;99.90
7214;DHT22;3648;50.614;13.830;2023-06-14T01:21:20;11.90;99.90
7214;DHT22;3648;50.614;13.830;2023-06-14T01:23:49;11.90;99.90
7214;DHT22;3648;50.614;13.830;2023-06-14T01:26:18;11.90;99.90
7214;DHT22;3648;50.614;13.830;2023-06-14T01:28:46;11.80;99.90
7214;DHT22;3648;50.614;13.830;2023-06-14T01:31:17;11.90;99.90
7214;DHT22;3648;50.614;13.830;2023-06-14T01:33:45;11.90;99.90
7214;DHT22;3648;50.614;13.830;2023-06-14T01:36:12;11.90;99.90
7214;DHT22;3648;50.614;13.830;2023-06-14T01:38:40;11.90;99.90
7214;DHT22;3648;50.614;13.830;2023-06-14T01:41:10;11.80;99.90
7214;DHT22;3648;50.614;13.830;2023-06-14T01:43:38;11.70;99.90
7214;DHT22;3648;50.614;13.830;2023-06-14T01:46:06;11.60;99.90
7214;DHT22;3648;50.614;13.830;2023-06-14T01:48:34;11.50;99.90
7214;DHT22;3648;50.614;13.830;2023-06-14T01:51:01;11.40;99.90
7214;DHT22;3648;50.614;13.830;2023-06-14T01:53:28;11.40;99.90
7214;DHT22;3648;50.614;13.830;2023-06-14T01:55:55;11.50;99.90
7214;DHT22;3648;50.614;13.830;2023-06-14T01:58:24;11.50;99.90
7214;DHT22;3648;50.614;13.830;2023-06-14T02:00:51;11.50;99.90
7214;DHT22;3648;50.614;13.830;2023-06-14T02:03:20;11.50;99.90
7214;DHT22;3648;50.614;13.830;2023-06-14T02:05:48;11.40;99.90
7214;DHT22;3648;50.614;13.830;2023-06-14T02:08:15;11.40;99.90
7214;DHT22;3648;50.614;13.830;2023-06-14T02:10:42;11.40;99.90
7214;DHT22;3648;50.614;13.830;2023-06-14T02:13:09;11.40;99.90
7214;DHT22;3648;50.614;13.830;2023-06-14T02:15:38;11.40;99.90
7214;DHT22;3648;50.614;13.830;2023-06-14T02:18:05;11.40;99.90
7214;DHT22;3648;50.614;13.830;2023-06-14T02:20:32;11.30;99.90
7214;DHT22;3648;50.614;13.830;2023-06-14T02:23:00;11.30;99.90
7214;DHT22;3648;50.614;13.830;2023-06-14T02:25:27;11.30;99.90
7214;DHT22;3648;50.614;13.830;2023-06-14T02:27:54;11.30;99.90
7214;DHT22;3648;50.614;13.830;2023-06-14T02:30:22;11.30;99.90
7214;DHT22;3648;50.614;13.830;2023-06-14T02:32:50;11.30;99.90
7214;DHT22;3648;50.614;13.830;2023-06-14T02:35:18;11.30;99.90
7214;DHT22;3648;50.614;13.830;2023-06-14T02:37:46;11.30;99.90
7214;DHT22;3648;50.614;13.830;2023-06-14T02:40:13;11.30;99.90
7214;DHT22;3648;50.614;13.830;2023-06-14T02:42:40;11.30;99.90
7214;DHT22;3648;50.614;13.830;2023-06-14T02:45:08;11.30;99.90
7214;DHT22;3648;50.614;13.830;2023-06-14T02:47:35;11.30;99.90
7214;DHT22;3648;50.614;13.830;2023-06-14T02:50:04;11.30;99.90
7214;DHT22;3648;50.614;13.830;2023-06-14T02:52:31;11.30;99.90
7214;DHT22;3648;50.614;13.830;2023-06-14T02:54:58;11.30;99.90
7214;DHT22;3648;50.614;13.830;2023-06-14T02:57:26;11.30;99.90
7214;DHT22;3648;50.614;13.830;2023-06-14T02:59:52;11.30;99.90
7214;DHT22;3648;50.614;13.830;2023-06-14T03:02:19;11.30;99.90
7214;DHT22;3648;50.614;13.830;2023-06-14T03:04:46;11.30;99.90
7214;DHT22;3648;50.614;13.830;2023-06-14T03:07:15;11.20;99.90
7214;DHT22;3648;50.614;13.830;2023-06-14T03:09:45;11.10;99.90
7214;DHT22;3648;50.614;13.830;2023-06-14T03:12:12;11.10;99.90
7214;DHT22;3648;50.614;13.830;2023-06-14T03:14:39;11.10;99.90
7214;DHT22;3648;50.614;13.830;2023-06-14T03:17:06;11.00;99.90
7214;DHT22;3648;50.614;13.830;2023-06-14T03:19:33;11.00;99.90
7214;DHT22;3648;50.614;13.830;2023-06-14T03:22:00;11.00;99.90
7214;DHT22;3648;50.614;13.830;2023-06-14T03:24:29;11.00;99.90
7214;DHT22;3648;50.614;13.830;2023-06-14T03:26:57;11.00;99.90
7214;DHT22;3648;50.614;13.830;2023-06-14T03:29:24;11.00;99.90
7214;DHT22;3648;50.614;13.830;2023-06-14T03:31:58;10.90;99.90
7214;DHT22;3648;50.614;13.830;2023-06-14T03:34:26;10.90;99.90
7214;DHT22;3648;50.614;13.830;2023-06-14T03:36:53;10.90;99.90
7214;DHT22;3648;50.614;13.830;2023-06-14T03:39:20;10.80;99.90
7214;DHT22;3648;50.614;13.830;2023-06-14T03:41:48;10.90;99.90
7214;DHT22;3648;50.614;13.830;2023-06-14T03:44:16;10.90;99.90
7214;DHT22;3648;50.614;13.830;2023-06-14T03:46:44;10.80;99.90
7214;DHT22;3648;50.614;13.830;2023-06-14T03:49:11;10.80;99.90
7214;DHT22;3648;50.614;13.830;2023-06-14T03:51:38;10.80;99.90
7214;DHT22;3648;50.614;13.830;2023-06-14T03:54:06;10.90;99.90
7214;DHT22;3648;50.614;13.830;2023-06-14T03:56:33;11.00;99.90
7214;DHT22;3648;50.614;13.830;2023-06-14T03:59:02;11.00;99.90
7214;DHT22;3648;50.614;13.830;2023-06-14T04:01:29;11.00;99.90
7214;DHT22;3648;50.614;13.830;2023-06-14T04:03:56;11.10;99.90
7214;DHT22;3648;50.614;13.830;2023-06-14T04:06:24;11.20;99.90
7214;DHT22;3648;50.614;13.830;2023-06-14T04:08:59;11.20;99.90
7214;DHT22;3648;50.614;13.830;2023-06-14T04:11:29;11.20;99.90
7214;DHT22;3648;50.614;13.830;2023-06-14T04:13:56;11.20;99.90
7214;DHT22;3648;50.614;13.830;2023-06-14T04:16:24;11.30;99.90
7214;DHT22;3648;50.614;13.830;2023-06-14T04:18:51;11.30;99.90
7214;DHT22;3648;50.614;13.830;2023-06-14T04:21:19;11.30;99.90
7214;DHT22;3648;50.614;13.830;2023-06-14T04:23:46;11.40;99.90
7214;DHT22;3648;50.614;13.830;2023-06-14T04:26:13;11.40;99.90
7214;DHT22;3648;50.614;13.830;2023-06-14T04:28:41;11.40;99.90
7214;DHT22;3648;50.614;13.830;2023-06-14T04:31:11;11.50;99.90
7214;DHT22;3648;50.614;13.830;2023-06-14T04:33:39;11.60;99.90
7214;DHT22;3648;50.614;13.830;2023-06-14T04:36:11;11.60;99.90
7214;DHT22;3648;50.614;13.830;2023-06-14T04:38:39;11.60;99.90
7214;DHT22;3648;50.614;13.830;2023-06-14T04:41:06;11.70;99.90
7214;DHT22;3648;50.614;13.830;2023-06-14T04:43:37;11.70;99.90
7214;DHT22;3648;50.614;13.830;2023-06-14T04:46:05;11.80;99.90
7214;DHT22;3648;50.614;13.830;2023-06-14T04:48:35;11.80;99.90
7214;DHT22;3648;50.614;13.830;2023-06-14T04:51:03;11.90;99.90
7214;DHT22;3648;50.614;13.830;2023-06-14T04:53:31;12.00;99.90
7214;DHT22;3648;50.614;13.830;2023-06-14T04:55:58;12.00;99.90
7214;DHT22;3648;50.614;13.830;2023-06-14T04:58:26;12.00;99.90
7214;DHT22;3648;50.614;13.830;2023-06-14T05:00:54;12.10;99.90
7214;DHT22;3648;50.614;13.830;2023-06-14T05:03:22;12.10;99.90
7214;DHT22;3648;50.614;13.830;2023-06-14T05:05:52;12.20;99.90
7214;DHT22;3648;50.614;13.830;2023-06-14T05:08:21;12.20;99.90
7214;DHT22;3648;50.614;13.830;2023-06-14T05:10:50;12.30;99.90
7214;DHT22;3648;50.614;13.830;2023-06-14T05:13:17;12.30;99.90
7214;DHT22;3648;50.614;13.830;2023-06-14T05:15:52;12.40;99.90
7214;DHT22;3648;50.614;13.830;2023-06-14T05:18:20;12.40;99.90
7214;DHT22;3648;50.614;13.830;2023-06-14T05:20:47;12.50;99.90
7214;DHT22;3648;50.614;13.830;2023-06-14T05:23:14;12.50;99.90
7214;DHT22;3648;50.614;13.830;2023-06-14T05:25:46;12.50;99.90
7214;DHT22;3648;50.614;13.830;2023-06-14T05:28:13;12.60;99.90
7214;DHT22;3648;50.614;13.830;2023-06-14T05:30:40;12.60;99.90
7214;DHT22;3648;50.614;13.830;2023-06-14T05:33:07;12.70;99.90
7214;DHT22;3648;50.614;13.830;2023-06-14T05:35:34;12.70;99.90
7214;DHT22;3648;50.614;13.830;2023-06-14T05:38:01;12.80;99.90
7214;DHT22;3648;50.614;13.830;2023-06-14T05:40:28;12.80;99.90
7214;DHT22;3648;50.614;13.830;2023-06-14T05:42:56;12.90;99.90
7214;DHT22;3648;50.614;13.830;2023-06-14T05:45:23;12.90;99.90
7214;DHT22;3648;50.614;13.830;2023-06-14T05:47:50;12.90;99.90
7214;DHT22;3648;50.614;13.830;2023-06-14T05:50:17;13.00;99.90
7214;DHT22;3648;50.614;13.830;2023-06-14T05:52:44;13.00;99.90
7214;DHT22;3648;50.614;13.830;2023-06-14T05:55:11;13.10;99.90
7214;DHT22;3648;50.614;13.830;2023-06-14T05:57:38;13.10;99.90
7214;DHT22;3648;50.614;13.830;2023-06-14T06:00:08;13.20;99.90
7214;DHT22;3648;50.614;13.830;2023-06-14T06:02:40;13.20;99.90
7214;DHT22;3648;50.614;13.830;2023-06-14T06:05:08;13.30;99.90
7214;DHT22;3648;50.614;13.830;2023-06-14T06:07:35;13.40;99.90
7214;DHT22;3648;50.614;13.830;2023-06-14T06:10:03;13.50;99.90
7214;DHT22;3648;50.614;13.830;2023-06-14T06:12:30;13.50;99.90
7214;DHT22;3648;50.614;13.830;2023-06-14T06:14:58;13.60;99.90
7214;DHT22;3648;50.614;13.830;2023-06-14T06:17:26;13.70;99.90
7214;DHT22;3648;50.614;13.830;2023-06-14T06:19:54;13.70;99.90
7214;DHT22;3648;50.614;13.830;2023-06-14T06:22:21;13.70;99.90
7214;DHT22;3648;50.614;13.830;2023-06-14T06:24:48;13.80;99.90
7214;DHT22;3648;50.614;13.830;2023-06-14T06:27:14;13.90;99.90
7214;DHT22;3648;50.614;13.830;2023-06-14T06:29:44;14.00;99.90
7214;DHT22;3648;50.614;13.830;2023-06-14T06:32:11;14.10;99.90
7214;DHT22;3648;50.614;13.830;2023-06-14T06:34:39;14.10;99.90
7214;DHT22;3648;50.614;13.830;2023-06-14T06:37:06;14.20;99.90
7214;DHT22;3648;50.614;13.830;2023-06-14T06:39:34;14.30;99.90
7214;DHT22;3648;50.614;13.830;2023-06-14T06:42:01;14.40;99.90
7214;DHT22;3648;50.614;13.830;2023-06-14T06:44:28;14.50;99.90
7214;DHT22;3648;50.614;13.830;2023-06-14T06:46:55;14.50;99.90
7214;DHT22;3648;50.614;13.830;2023-06-14T06:49:22;14.50;99.90
7214;DHT22;3648;50.614;13.830;2023-06-14T06:52:01;14.60;99.90
7214;DHT22;3648;50.614;13.830;2023-06-14T06:54:29;14.70;99.90
7214;DHT22;3648;50.614;13.830;2023-06-14T06:56:58;14.70;99.90
7214;DHT22;3648;50.614;13.830;2023-06-14T06:59:25;14.80;99.90
7214;DHT22;3648;50.614;13.830;2023-06-14T07:01:52;14.90;99.90
7214;DHT22;3648;50.614;13.830;2023-06-14T07:04:20;14.90;99.90
7214;DHT22;3648;50.614;13.830;2023-06-14T07:06:53;15.00;99.90
7214;DHT22;3648;50.614;13.830;2023-06-14T07:09:21;15.00;99.90
7214;DHT22;3648;50.614;13.830;2023-06-14T07:11:50;15.10;99.90
7214;DHT22;3648;50.614;13.830;2023-06-14T07:14:17;15.20;99.90
7214;DHT22;3648;50.614;13.830;2023-06-14T07:16:44;15.20;99.90
7214;DHT22;3648;50.614;13.830;2023-06-14T07:19:12;15.30;99.90
7214;DHT22;3648;50.614;13.830;2023-06-14T07:21:39;15.30;99.90
7214;DHT22;3648;50.614;13.830;2023-06-14T07:24:06;15.40;99.90
7214;DHT22;3648;50.614;13.830;2023-06-14T07:26:35;15.40;99.90
7214;DHT22;3648;50.614;13.830;2023-06-14T07:29:02;15.50;99.90
7214;DHT22;3648;50.614;13.830;2023-06-14T07:31:29;15.50;99.90
7214;DHT22;3648;50.614;13.830;2023-06-14T07:33:56;15.60;99.90
7214;DHT22;3648;50.614;13.830;2023-06-14T07:36:23;15.60;99.90
7214;DHT22;3648;50.614;13.830;2023-06-14T07:38:50;15.60;99.90
7214;DHT22;3648;50.614;13.830;2023-06-14T07:41:17;15.70;99.90
7214;DHT22;3648;50.614;13.830;2023-06-14T07:43:45;15.80;99.90
7214;DHT22;3648;50.614;13.830;2023-06-14T07:46:12;15.90;99.90
7214;DHT22;3648;50.614;13.830;2023-06-14T07:48:39;16.00;99.90
7214;DHT22;3648;50.614;13.830;2023-06-14T07:51:06;16.00;99.90
7214;DHT22;3648;50.614;13.830;2023-06-14T07:53:33;16.10;99.90
7214;DHT22;3648;50.614;13.830;2023-06-14T07:56:00;16.20;99.90
7214;DHT22;3648;50.614;13.830;2023-06-14T07:58:28;16.20;99.90
7214;DHT22;3648;50.614;13.830;2023-06-14T08:00:56;16.30;99.90
7214;DHT22;3648;50.614;13.830;2023-06-14T08:03:23;16.40;99.90
7214;DHT22;3648;50.614;13.830;2023-06-14T08:05:50;16.50;99.90
7214;DHT22;3648;50.614;13.830;2023-06-14T08:08:17;16.50;99.90
7214;DHT22;3648;50.614;13.830;2023-06-14T08:10:44;16.50;99.90
7214;DHT22;3648;50.614;13.830;2023-06-14T08:13:11;16.60;99.90
7214;DHT22;3648;50.614;13.830;2023-06-14T08:15:38;16.70;99.90
7214;DHT22;3648;50.614;13.830;2023-06-14T08:18:07;16.70;99.90
7214;DHT22;3648;50.614;13.830;2023-06-14T08:20:34;16.70;99.90
7214;DHT22;3648;50.614;13.830;2023-06-14T08:23:02;16.80;99.90
7214;DHT22;3648;50.614;13.830;2023-06-14T08:25:29;16.80;99.90
7214;DHT22;3648;50.614;13.830;2023-06-14T08:27:56;16.90;99.90
7214;DHT22;3648;50.614;13.830;2023-06-14T08:30:23;16.90;99.90
7214;DHT22;3648;50.614;13.830;2023-06-14T08:32:50;16.90;99.90
7214;DHT22;3648;50.614;13.830;2023-06-14T08:35:22;17.00;99.90
7214;DHT22;3648;50.614;13.830;2023-06-14T08:37:49;17.00;99.90
7214;DHT22;3648;50.614;13.830;2023-06-14T08:40:20;17.00;99.90
7214;DHT22;3648;50.614;13.830;2023-06-14T08:42:50;17.20;99.90
7214;DHT22;3648;50.614;13.830;2023-06-14T08:45:18;17.20;99.90
7214;DHT22;3648;50.614;13.830;2023-06-14T08:47:45;17.20;99.90
7214;DHT22;3648;50.614;13.830;2023-06-14T08:50:20;17.30;99.90
7214;DHT22;3648;50.614;13.830;2023-06-14T08:52:54;17.30;99.90
7214;DHT22;3648;50.614;13.830;2023-06-14T08:55:22;17.40;99.90
7214;DHT22;3648;50.614;13.830;2023-06-14T08:57:51;17.50;99.90
7214;DHT22;3648;50.614;13.830;2023-06-14T09:00:20;17.60;99.90
7214;DHT22;3648;50.614;13.830;2023-06-14T09:02:49;17.70;99.90
7214;DHT22;3648;50.614;13.830;2023-06-14T09:05:22;17.90;99.90
7214;DHT22;3648;50.614;13.830;2023-06-14T09:07:51;18.00;99.90
7214;DHT22;3648;50.614;13.830;2023-06-14T09:10:18;18.10;99.90
7214;DHT22;3648;50.614;13.830;2023-06-14T09:12:47;18.20;99.90
7214;DHT22;3648;50.614;13.830;2023-06-14T09:15:13;18.40;99.90
7214;DHT22;3648;50.614;13.830;2023-06-14T09:17:41;18.50;99.90
7214;DHT22;3648;50.614;13.830;2023-06-14T09:20:09;18.60;99.90
7214;DHT22;3648;50.614;13.830;2023-06-14T09:22:37;18.80;99.90
7214;DHT22;3648;50.614;13.830;2023-06-14T09:25:07;18.90;99.90
7214;DHT22;3648;50.614;13.830;2023-06-14T09:27:34;19.10;99.90
7214;DHT22;3648;50.614;13.830;2023-06-14T09:30:02;19.20;99.90
7214;DHT22;3648;50.614;13.830;2023-06-14T09:32:29;19.40;99.90
7214;DHT22;3648;50.614;13.830;2023-06-14T09:34:57;19.40;99.90
7214;DHT22;3648;50.614;13.830;2023-06-14T09:37:28;19.40;99.90
7214;DHT22;3648;50.614;13.830;2023-06-14T09:39:56;19.40;99.90
7214;DHT22;3648;50.614;13.830;2023-06-14T09:42:25;19.30;99.90
7214;DHT22;3648;50.614;13.830;2023-06-14T09:44:55;19.30;99.90
7214;DHT22;3648;50.614;13.830;2023-06-14T09:47:23;19.20;99.90
7214;DHT22;3648;50.614;13.830;2023-06-14T09:49:51;19.10;99.90
7214;DHT22;3648;50.614;13.830;2023-06-14T09:52:21;19.20;99.90
7214;DHT22;3648;50.614;13.830;2023-06-14T09:54:49;19.20;99.90
7214;DHT22;3648;50.614;13.830;2023-06-14T09:57:21;19.20;99.90
7214;DHT22;3648;50.614;13.830;2023-06-14T09:59:53;19.20;99.90
7214;DHT22;3648;50.614;13.830;2023-06-14T10:02:25;19.10;99.90
7214;DHT22;3648;50.614;13.830;2023-06-14T10:04:58;19.10;99.90
7214;DHT22;3648;50.614;13.830;2023-06-14T10:07:35;19.00;99.90
7214;DHT22;3648;50.614;13.830;2023-06-14T10:10:04;19.10;99.90
7214;DHT22;3648;50.614;13.830;2023-06-14T10:12:31;19.20;99.90
7214;DHT22;3648;50.614;13.830;2023-06-14T10:15:00;19.20;99.90
7214;DHT22;3648;50.614;13.830;2023-06-14T10:17:35;19.40;99.90
7214;DHT22;3648;50.614;13.830;2023-06-14T10:20:15;19.50;99.90
7214;DHT22;3648;50.614;13.830;2023-06-14T10:22:49;19.60;99.90
7214;DHT22;3648;50.614;13.830;2023-06-14T10:25:26;19.80;99.90
7214;DHT22;3648;50.614;13.830;2023-06-14T10:28:03;19.90;99.90
7214;DHT22;3648;50.614;13.830;2023-06-14T10:30:32;19.90;99.90
7214;DHT22;3648;50.614;13.830;2023-06-14T10:33:06;19.90;99.90
7214;DHT22;3648;50.614;13.830;2023-06-14T10:35:35;19.90;99.90
7214;DHT22;3648;50.614;13.830;2023-06-14T10:38:12;20.10;99.90
7214;DHT22;3648;50.614;13.830;2023-06-14T10:40:39;20.10;99.90
7214;DHT22;3648;50.614;13.830;2023-06-14T10:43:22;20.00;99.90
7214;DHT22;3648;50.614;13.830;2023-06-14T10:46:17;20.10;99.90
7214;DHT22;3648;50.614;13.830;2023-06-14T10:48:44;20.00;99.90
7214;DHT22;3648;50.614;13.830;2023-06-14T10:51:16;20.00;99.90
7214;DHT22;3648;50.614;13.830;2023-06-14T10:53:46;19.90;99.90
7214;DHT22;3648;50.614;13.830;2023-06-14T10:56:30;19.90;99.90
7214;DHT22;3648;50.614;13.830;2023-06-14T10:58:57;19.90;99.90
7214;DHT22;3648;50.614;13.830;2023-06-14T11:01:35;20.00;99.90
7214;DHT22;3648;50.614;13.830;2023-06-14T11:04:10;20.00;99.90
7214;DHT22;3648;50.614;13.830;2023-06-14T11:06:47;20.10;99.90
7214;DHT22;3648;50.614;13.830;2023-06-14T11:09:38;20.00;99.90
7214;DHT22;3648;50.614;13.830;2023-06-14T11:12:12;20.00;99.90
7214;DHT22;3648;50.614;13.830;2023-06-14T11:14:39;19.90;99.90
7214;DHT22;3648;50.614;13.830;2023-06-14T11:17:08;19.90;99.90
7214;DHT22;3648;50.614;13.830;2023-06-14T11:19:35;19.90;99.90
7214;DHT22;3648;50.614;13.830;2023-06-14T11:22:02;19.90;99.90
7214;DHT22;3648;50.614;13.830;2023-06-14T11:24:29;19.70;99.90
7214;DHT22;3648;50.614;13.830;2023-06-14T11:26:56;19.60;99.90
7214;DHT22;3648;50.614;13.830;2023-06-14T11:29:23;19.60;99.90
7214;DHT22;3648;50.614;13.830;2023-06-14T11:31:51;19.50;99.90
7214;DHT22;3648;50.614;13.830;2023-06-14T11:34:19;19.40;99.90
7214;DHT22;3648;50.614;13.830;2023-06-14T11:36:47;19.30;99.90
7214;DHT22;3648;50.614;13.830;2023-06-14T11:39:14;19.30;99.90
7214;DHT22;3648;50.614;13.830;2023-06-14T11:41:42;19.20;99.90
7214;DHT22;3648;50.614;13.830;2023-06-14T11:44:10;19.20;99.90
7214;DHT22;3648;50.614;13.830;2023-06-14T11:46:38;19.20;99.90
7214;DHT22;3648;50.614;13.830;2023-06-14T11:49:06;19.10;99.90
7214;DHT22;3648;50.614;13.830;2023-06-14T11:51:36;19.20;99.90
7214;DHT22;3648;50.614;13.830;2023-06-14T11:54:04;19.20;99.90
7214;DHT22;3648;50.614;13.830;2023-06-14T11:56:32;19.40;99.90
7214;DHT22;3648;50.614;13.830;2023-06-14T11:58:59;19.40;99.90
7214;DHT22;3648;50.614;13.830;2023-06-14T12:01:26;19.50;99.90
7214;DHT22;3648;50.614;13.830;2023-06-14T12:03:54;19.60;99.90
7214;DHT22;3648;50.614;13.830;2023-06-14T12:06:28;19.50;99.90
7214;DHT22;3648;50.614;13.830;2023-06-14T12:09:00;19.60;99.90
7214;DHT22;3648;50.614;13.830;2023-06-14T12:11:33;19.60;99.90
7214;DHT22;3648;50.614;13.830;2023-06-14T12:14:02;19.60;99.90
7214;DHT22;3648;50.614;13.830;2023-06-14T12:16:31;19.60;99.90
7214;DHT22;3648;50.614;13.830;2023-06-14T12:19:01;19.50;99.90
7214;DHT22;3648;50.614;13.830;2023-06-14T12:21:34;19.40;99.90
7214;DHT22;3648;50.614;13.830;2023-06-14T12:24:04;19.30;99.90
7214;DHT22;3648;50.614;13.830;2023-06-14T12:26:32;19.40;99.90
7214;DHT22;3648;50.614;13.830;2023-06-14T12:28:59;19.50;99.90
7214;DHT22;3648;50.614;13.830;2023-06-14T12:31:26;19.60;99.90
7214;DHT22;3648;50.614;13.830;2023-06-14T12:33:54;19.70;99.90
7214;DHT22;3648;50.614;13.830;2023-06-14T12:36:22;19.80;99.90
7214;DHT22;3648;50.614;13.830;2023-06-14T12:38:49;19.90;99.90
7214;DHT22;3648;50.614;13.830;2023-06-14T12:41:20;19.80;99.90
7214;DHT22;3648;50.614;13.830;2023-06-14T12:43:47;19.70;99.90
7214;DHT22;3648;50.614;13.830;2023-06-14T12:46:14;19.60;99.90
7214;DHT22;3648;50.614;13.830;2023-06-14T12:48:41;19.50;99.90
7214;DHT22;3648;50.614;13.830;2023-06-14T12:51:08;19.30;99.90
7214;DHT22;3648;50.614;13.830;2023-06-14T12:53:35;19.30;99.90
7214;DHT22;3648;50.614;13.830;2023-06-14T12:56:03;19.10;99.90
7214;DHT22;3648;50.614;13.830;2023-06-14T12:58:31;19.00;99.90
7214;DHT22;3648;50.614;13.830;2023-06-14T13:00:58;18.80;99.90
7214;DHT22;3648;50.614;13.830;2023-06-14T13:03:25;18.80;99.90
7214;DHT22;3648;50.614;13.830;2023-06-14T13:05:52;18.80;99.90
7214;DHT22;3648;50.614;13.830;2023-06-14T13:08:19;18.70;99.90
7214;DHT22;3648;50.614;13.830;2023-06-14T13:10:46;18.70;99.90
7214;DHT22;3648;50.614;13.830;2023-06-14T13:13:13;18.70;99.90
7214;DHT22;3648;50.614;13.830;2023-06-14T13:15:41;18.70;99.90
7214;DHT22;3648;50.614;13.830;2023-06-14T13:18:09;18.70;99.90
7214;DHT22;3648;50.614;13.830;2023-06-14T13:20:39;18.70;99.90
7214;DHT22;3648;50.614;13.830;2023-06-14T13:23:06;18.70;99.90
7214;DHT22;3648;50.614;13.830;2023-06-14T13:25:33;18.80;99.90
7214;DHT22;3648;50.614;13.830;2023-06-14T13:28:00;18.80;99.90
7214;DHT22;3648;50.614;13.830;2023-06-14T13:30:28;18.80;99.90
7214;DHT22;3648;50.614;13.830;2023-06-14T13:32:56;19.00;99.90
7214;DHT22;3648;50.614;13.830;2023-06-14T13:35:24;19.00;99.90
7214;DHT22;3648;50.614;13.830;2023-06-14T13:37:51;19.00;99.90
7214;DHT22;3648;50.614;13.830;2023-06-14T13:40:18;19.10;99.90
7214;DHT22;3648;50.614;13.830;2023-06-14T13:42:46;19.00;99.90
7214;DHT22;3648;50.614;13.830;2023-06-14T13:45:15;19.10;99.90
7214;DHT22;3648;50.614;13.830;2023-06-14T13:47:42;19.10;99.90
7214;DHT22;3648;50.614;13.830;2023-06-14T13:50:10;19.10;99.90
7214;DHT22;3648;50.614;13.830;2023-06-14T13:52:38;19.00;99.90
7214;DHT22;3648;50.614;13.830;2023-06-14T13:55:06;19.10;99.90
7214;DHT22;3648;50.614;13.830;2023-06-14T13:57:33;19.10;99.90
7214;DHT22;3648;50.614;13.830;2023-06-14T14:00:00;19.10;99.90
7214;DHT22;3648;50.614;13.830;2023-06-14T14:02:27;19.00;99.90
7214;DHT22;3648;50.614;13.830;2023-06-14T14:04:54;19.10;99.90
7214;DHT22;3648;50.614;13.830;2023-06-14T14:07:24;19.10;99.90
7214;DHT22;3648;50.614;13.830;2023-06-14T14:09:51;19.00;99.90
7214;DHT22;3648;50.614;13.830;2023-06-14T14:12:18;19.10;99.90
7214;DHT22;3648;50.614;13.830;2023-06-14T14:14:45;19.00;99.90
7214;DHT22;3648;50.614;13.830;2023-06-14T14:17:13;19.00;99.90
7214;DHT22;3648;50.614;13.830;2023-06-14T14:19:39;19.00;99.90
7214;DHT22;3648;50.614;13.830;2023-06-14T14:22:07;19.10;99.90
7214;DHT22;3648;50.614;13.830;2023-06-14T14:24:35;19.10;99.90
7214;DHT22;3648;50.614;13.830;2023-06-14T14:27:02;19.10;99.90
7214;DHT22;3648;50.614;13.830;2023-06-14T14:29:29;19.20;99.90
7214;DHT22;3648;50.614;13.830;2023-06-14T14:31:56;19.20;99.90
7214;DHT22;3648;50.614;13.830;2023-06-14T14:34:24;19.10;99.90
7214;DHT22;3648;50.614;13.830;2023-06-14T14:36:51;19.10;99.90
7214;DHT22;3648;50.614;13.830;2023-06-14T14:39:18;19.10;99.90
7214;DHT22;3648;50.614;13.830;2023-06-14T14:41:47;19.10;99.90
7214;DHT22;3648;50.614;13.830;2023-06-14T14:44:14;19.20;99.90
7214;DHT22;3648;50.614;13.830;2023-06-14T14:46:41;19.10;99.90
7214;DHT22;3648;50.614;13.830;2023-06-14T14:49:09;19.20;99.90
7214;DHT22;3648;50.614;13.830;2023-06-14T14:51:36;19.20;99.90
7214;DHT22;3648;50.614;13.830;2023-06-14T14:54:05;19.40;99.90
7214;DHT22;3648;50.614;13.830;2023-06-14T14:56:32;19.50;99.90
7214;DHT22;3648;50.614;13.830;2023-06-14T14:59:02;19.60;99.90
7214;DHT22;3648;50.614;13.830;2023-06-14T15:01:29;19.80;99.90
7214;DHT22;3648;50.614;13.830;2023-06-14T15:03:56;19.90;99.90
7214;DHT22;3648;50.614;13.830;2023-06-14T15:06:23;20.00;99.90
7214;DHT22;3648;50.614;13.830;2023-06-14T15:08:50;20.10;99.90
7214;DHT22;3648;50.614;13.830;2023-06-14T15:11:17;20.10;99.90
7214;DHT22;3648;50.614;13.830;2023-06-14T15:13:44;20.10;99.90
7214;DHT22;3648;50.614;13.830;2023-06-14T15:16:13;20.20;99.90
7214;DHT22;3648;50.614;13.830;2023-06-14T15:18:40;20.20;99.90
7214;DHT22;3648;50.614;13.830;2023-06-14T15:21:07;20.10;99.90
7214;DHT22;3648;50.614;13.830;2023-06-14T15:23:33;19.90;99.90
7214;DHT22;3648;50.614;13.830;2023-06-14T15:26:01;19.80;99.90
7214;DHT22;3648;50.614;13.830;2023-06-14T15:28:27;19.70;99.90
7214;DHT22;3648;50.614;13.830;2023-06-14T15:30:55;19.60;99.90
7214;DHT22;3648;50.614;13.830;2023-06-14T15:33:23;19.50;99.90
7214;DHT22;3648;50.614;13.830;2023-06-14T15:35:51;19.40;99.90
7214;DHT22;3648;50.614;13.830;2023-06-14T15:38:19;19.30;99.90
7214;DHT22;3648;50.614;13.830;2023-06-14T15:40:47;19.30;99.90
7214;DHT22;3648;50.614;13.830;2023-06-14T15:43:14;19.20;99.90
7214;DHT22;3648;50.614;13.830;2023-06-14T15:45:41;19.10;99.90
7214;DHT22;3648;50.614;13.830;2023-06-14T15:48:09;19.00;99.90
7214;DHT22;3648;50.614;13.830;2023-06-14T15:50:37;18.90;99.90
7214;DHT22;3648;50.614;13.830;2023-06-14T15:53:04;18.70;99.90